Telemetry
Timestamp Node Air Util TX Channel Util Battery Uptime Voltage Current Barometric Pressure Relative Humidity Temperature Gas Resistance
2026-05-07 00:19:36 HAM2 2.55% 1.0% 90% 1145016 4.06 V
2026-05-07 00:19:36 HAM2 2.55% 1.0% 90% 1145016 4.06 V
2026-05-07 00:19:35 HAM2 2.55% 1.0% 90% 1145016 4.06 V
2026-05-07 00:19:35 HAM2 2.55% 1.0% 90% 1145016 4.06 V
2026-05-07 00:19:31 HAM2 2.55% 1.0% 90% 1145016 4.06 V
2026-05-07 00:19:31 HAM2 2.55% 1.0% 90% 1145016 4.06 V
2026-05-07 00:18:45 JR70 0.3% 88% 6107426 4.04 V
2026-05-07 00:18:45 JR70 0.3% 88% 6107426 4.04 V
2026-05-07 00:17:06 4e18 0.09% 0.0% 101% 1487530 4.23 V
2026-05-07 00:17:06 4e18 0.09% 0.0% 101% 1487530 4.23 V
2026-05-07 00:16:50 RX01 0.04% 0.0% 101% 2236 0.0 V
2026-05-07 00:16:50 RX01 0.04% 0.0% 101% 2236 0.0 V
2026-05-07 00:16:20 PcL1 0.12% 0.0% 98% 11222 4.17 V
2026-05-07 00:16:20 PcL1 0.12% 0.0% 98% 11222 4.17 V
2026-05-07 00:16:09 ah01 2.08% 6.7% 94% 3124 4.12 V
2026-05-07 00:16:09 ah01 2.08% 6.7% 94% 3124 4.12 V
2026-05-07 00:16:09 ah01 2.08% 6.7% 94% 3124 4.12 V
2026-05-07 00:16:08 ah01 2.08% 6.7% 94% 3124 4.12 V
2026-05-07 00:16:07 ah01 2.08% 6.7% 94% 3124 4.12 V
2026-05-07 00:15:28 PTRH 0.32% 0.0% 54% 903242 3.76 V
2026-05-07 00:15:27 PTRH 0.32% 0.0% 54% 903242 3.76 V
2026-05-07 00:14:56 ah01 2.08% 6.7% 94% 3124 4.12 V
2026-05-07 00:14:56 ah01 2.08% 6.7% 94% 3124 4.12 V
2026-05-07 00:14:49 LRX1 1011.41 hPa 53.01% 21.64°C
2026-05-07 00:14:48 LRX1 1011.41 hPa 53.01% 21.64°C
2026-05-07 00:14:47 LRX1 1011.41 hPa 53.01% 21.64°C
2026-05-07 00:14:46 LRX1 1011.41 hPa 53.01% 21.64°C
2026-05-07 00:14:45 LRX1 1011.41 hPa 53.01% 21.64°C
2026-05-07 00:14:45 LRX1 1011.41 hPa 53.01% 21.64°C
2026-05-07 00:14:45 LRX1 1011.41 hPa 53.01% 21.64°C
2026-05-07 00:14:31 e536 0.16% 0.0% 91% 47516032 4.08 V
2026-05-07 00:14:19 LRX1 1.09% 11.5% 96% 93867 4.14 V
2026-05-07 00:14:19 LRX1 1.09% 11.5% 96% 93867 4.14 V
2026-05-07 00:14:16 LRX1 1.09% 11.5% 96% 93867 4.14 V
2026-05-07 00:14:16 LRX1 1.09% 11.5% 96% 93867 4.14 V
2026-05-07 00:14:15 LRX1 1.09% 11.5% 96% 93867 4.14 V
2026-05-07 00:14:15 LRX1 1.09% 11.5% 96% 93867 4.14 V
2026-05-07 00:14:15 LRX1 1.09% 11.5% 96% 93867 4.14 V
2026-05-07 00:13:34 Gert 2.41% 5.6% 79% 288930 3.98 V
2026-05-07 00:13:34 Gert 2.41% 5.6% 79% 288930 3.98 V
2026-05-07 00:13:34 Gert 2.41% 5.6% 79% 288930 3.98 V
2026-05-07 00:13:32 Gert 2.41% 5.6% 79% 288930 3.98 V
2026-05-07 00:13:32 Gert 2.41% 5.6% 79% 288930 3.98 V
2026-05-07 00:13:31 Gert 2.41% 5.6% 79% 288930 3.98 V
2026-05-07 00:13:30 Gert 2.41% 5.6% 79% 288930 3.98 V
2026-05-07 00:13:30 Gert 2.41% 5.6% 79% 288930 3.98 V
2026-05-07 00:11:41 Jim1 2.22% 4.3% 93% 6783918 4.1 V
2026-05-07 00:11:39 Jim1 2.22% 4.3% 93% 6783918 4.1 V
2026-05-07 00:11:38 Jim1 2.22% 4.3% 93% 6783918 4.1 V
2026-05-07 00:11:38 Jim1 2.22% 4.3% 93% 6783918 4.1 V
2026-05-07 00:11:31 RF03 0.11% 3.4% 66% 7867 3.74 V
2026-05-07 00:11:31 RF03 0.11% 3.4% 66% 7867 3.74 V
2026-05-07 00:11:31 RF03 0.11% 3.4% 66% 7867 3.74 V
2026-05-07 00:09:49 Wdst 1.11% 72% 4323782 3.91 V
2026-05-07 00:09:49 Wdst 1.11% 72% 4323782 3.91 V
2026-05-07 00:09:49 Wdst 1.11% 72% 4323782 3.91 V
2026-05-07 00:07:45 2-D 0.34% 101% 12874388 4.22 V
2026-05-07 00:07:45 2-D 0.34% 101% 12874388 4.22 V
2026-05-07 00:07:21 SMWS 0.86% 2.8% 33% 739967 3.56 V
2026-05-07 00:07:21 SMWS 0.86% 2.8% 33% 739967 3.56 V
2026-05-07 00:07:20 SMWS 0.86% 2.8% 33% 739967 3.56 V
2026-05-07 00:07:07 7274 0.31% 0.0% 100% 7739330 4.11 V
2026-05-07 00:07:07 7274 0.31% 0.0% 100% 7739330 4.11 V
2026-05-07 00:04:59 2369 0.46% 7.7% 5% 61632 3.21 V
2026-05-07 00:04:59 2369 0.46% 7.7% 5% 61632 3.21 V
2026-05-07 00:04:59 2369 0.46% 7.7% 5% 61632 3.21 V
2026-05-07 00:02:43 LMGB 0.06% 0.0% 101% 69236 -0.0 V
2026-05-07 00:02:42 LMGB 0.06% 0.0% 101% 69236 -0.0 V
2026-05-07 00:01:01 PMT2 1.94% 12.2% 71% 2825259 3.98 V
2026-05-07 00:01:00 PMT2 1.94% 12.2% 71% 2825259 3.98 V
2026-05-07 00:00:59 PMT2 1.94% 12.2% 71% 2825259 3.98 V
2026-05-07 00:00:57 PMT2 1.94% 12.2% 71% 2825259 3.98 V
2026-05-07 00:00:57 PMT2 1.94% 12.2% 71% 2825259 3.98 V
2026-05-07 00:00:40 PMT2 23.6°C
2026-05-07 00:00:40 HT77 871.0 hPa 47.13% 10.92°C
2026-05-07 00:00:39 HT77 871.0 hPa 47.13% 10.92°C
2026-05-07 00:00:28 PMT2 23.6°C
2026-05-07 00:00:28 PMT2 23.6°C
2026-05-07 00:00:26 PMT2 23.6°C
2026-05-07 00:00:26 PMT2 23.6°C
2026-05-06 23:57:54 MELK 0.25% 0.0% 96% 4377777 4.14 V
2026-05-06 23:57:54 MELK 0.25% 0.0% 96% 4377777 4.14 V
2026-05-06 23:57:46 MELK 0.25% 0.0% 96% 4377777 4.14 V
2026-05-06 23:57:45 MELK 0.25% 0.0% 96% 4377777 4.14 V
2026-05-06 23:57:44 MELK 0.25% 0.0% 96% 4377777 4.14 V
2026-05-06 23:57:44 MELK 0.25% 0.0% 96% 4377777 4.14 V
2026-05-06 23:57:42 MELK 0.25% 0.0% 96% 4377777 4.14 V
2026-05-06 23:57:42 MELK 0.25% 0.0% 96% 4377777 4.14 V
2026-05-06 23:57:35 e40c 0.27% 0.0% 101% 313648 4.26 V
2026-05-06 23:57:20 976c 0.78% 3.0% 101% 4624531 4.22 V
2026-05-06 23:57:20 976c 0.78% 3.0% 101% 4624531 4.22 V
2026-05-06 23:56:55 HT77 0.33% 1.6% 101% 918100 4.28 V
2026-05-06 23:56:55 HT77 0.33% 1.6% 101% 918100 4.28 V
2026-05-06 23:55:58 2625 0.19% 5.2% 100% 865928 4.19 V
2026-05-06 23:55:58 2625 0.19% 5.2% 100% 865928 4.19 V
2026-05-06 23:55:49 LMBs 24.41°C
2026-05-06 23:55:49 LMBs 24.41°C
2026-05-06 23:54:54 Wdst 1.0% 12.8% 72% 4322881 3.91 V
2026-05-06 23:54:54 Wdst 1.0% 12.8% 72% 4322881 3.91 V
2026-05-06 23:54:54 Wdst 1.0% 12.8% 72% 4322881 3.91 V
2026-05-06 23:54:50 CHKV 0.86% 0.0% 101% 9037814 4.21 V
2026-05-06 23:54:20 RF06 0.46% 16.9% 101% 7266 6.31 V
2026-05-06 23:54:20 RF06 0.46% 16.9% 101% 7266 6.31 V
2026-05-06 23:54:19 RF06 0.46% 16.9% 101% 7266 6.31 V
2026-05-06 23:54:18 RF06 0.46% 16.9% 101% 7266 6.31 V
2026-05-06 23:54:17 RF06 0.46% 16.9% 101% 7266 6.31 V
2026-05-06 23:54:17 RF06 0.46% 16.9% 101% 7266 6.31 V
2026-05-06 23:54:13 RF06 0.46% 16.9% 101% 7266 6.31 V
2026-05-06 23:54:13 RF06 0.46% 16.9% 101% 7266 6.31 V
2026-05-06 23:54:13 RF06 0.46% 16.9% 101% 7266 6.31 V
2026-05-06 23:53:15 ah03
2026-05-06 23:53:13 ah03
2026-05-06 23:53:11 ah03
2026-05-06 23:53:10 ah03
2026-05-06 23:53:10 ah03
2026-05-06 23:52:24 1ae9 22.05°C
2026-05-06 23:52:23 1ae9 22.05°C
2026-05-06 23:52:22 1ae9 22.05°C
2026-05-06 23:52:20 1ae9 22.05°C
2026-05-06 23:52:19 1ae9 22.05°C
2026-05-06 23:52:19 1ae9 22.05°C
2026-05-06 23:51:25 HAM2 2.56% 4.9% 91% 1143216 4.06 V
2026-05-06 23:51:25 ah02 99.38% 15.89°C
2026-05-06 23:51:24 ah02 99.38% 15.89°C
2026-05-06 23:51:24 HAM2 2.56% 4.9% 91% 1143216 4.06 V
2026-05-06 23:49:48 SMWS 0.87% 9.2% 33% 738877 3.57 V
2026-05-06 23:49:48 SMWS 0.87% 9.2% 33% 738877 3.57 V
2026-05-06 23:49:36 HAM2 2.56% 4.9% 91% 1143216 4.06 V
2026-05-06 23:49:36 HAM2 2.56% 4.9% 91% 1143216 4.06 V
2026-05-06 23:49:33 HAM2 2.56% 4.9% 91% 1143216 4.06 V
2026-05-06 23:49:32 HAM2 2.56% 4.9% 91% 1143216 4.06 V
2026-05-06 23:49:31 HAM2 2.56% 4.9% 91% 1143216 4.06 V
2026-05-06 23:49:31 HAM2 2.56% 4.9% 91% 1143216 4.06 V
2026-05-06 23:49:30 HAM2 2.56% 4.9% 91% 1143216 4.06 V
2026-05-06 23:48:03 3bb8 0.96% 2.0% 101% 269654 5.04 V
2026-05-06 23:48:03 3bb8 0.96% 2.0% 101% 269654 5.04 V
2026-05-06 23:46:21 ah02 99.38% 15.89°C
2026-05-06 23:46:20 ah02 99.38% 15.89°C
2026-05-06 23:46:20 ah02 99.38% 15.89°C
2026-05-06 23:46:20 ah02 99.38% 15.89°C
2026-05-06 23:45:57 ah02 0.04% 12.4% 66% 61 3.86 V
2026-05-06 23:45:57 ah02 0.04% 12.4% 66% 61 3.86 V
2026-05-06 23:45:56 ah02 0.04% 12.4% 66% 61 3.86 V
2026-05-06 23:45:56 ah02 0.04% 12.4% 66% 61 3.86 V
2026-05-06 23:45:56 ah02 0.04% 12.4% 66% 61 3.86 V
2026-05-06 23:45:12 ah01 0.84% 3.2% 95% 1322 4.12 V
2026-05-06 23:45:12 ah01 0.84% 3.2% 95% 1322 4.12 V
2026-05-06 23:45:02 ah01 0.84% 3.2% 95% 1322 4.12 V
2026-05-06 23:45:02 ah01 0.84% 3.2% 95% 1322 4.12 V
2026-05-06 23:45:00 ah01 0.84% 3.2% 95% 1322 4.12 V
2026-05-06 23:44:59 ah01 0.84% 3.2% 95% 1322 4.12 V
2026-05-06 23:44:58 ah01 0.84% 3.2% 95% 1322 4.12 V
2026-05-06 23:44:58 ah01 0.84% 3.2% 95% 1322 4.12 V
2026-05-06 23:42:38 HT77 871.25 hPa 47.78% 10.91°C
2026-05-06 23:42:38 HT77 871.25 hPa 47.78% 10.91°C
2026-05-06 23:40:48 RX01 0.03% 8.6% 101% 75 0.0 V
2026-05-06 23:40:48 RX01 0.03% 8.6% 101% 75 0.0 V
2026-05-06 23:40:38 LMBr 2.2% 10.1% 93% 3804634 4.1 V
2026-05-06 23:40:33 LMBr 2.2% 10.1% 93% 3804634 4.1 V
2026-05-06 23:40:31 LMBr 2.2% 10.1% 93% 3804634 4.1 V
2026-05-06 23:40:31 LMBr 2.2% 10.1% 93% 3804634 4.1 V
2026-05-06 23:40:27 LMBr 2.2% 10.1% 93% 3804634 4.1 V
2026-05-06 23:40:26 LMBr 2.2% 10.1% 93% 3804634 4.1 V
2026-05-06 23:39:48 Wdst 1.13% 6.1% 73% 4321981 3.92 V
2026-05-06 23:39:48 Wdst 1.13% 6.1% 73% 4321981 3.92 V
2026-05-06 23:39:48 Wdst 1.13% 6.1% 73% 4321981 3.92 V
2026-05-06 23:39:40 PTRH 0.47% 0.0% 54% 901081 3.76 V
2026-05-06 23:39:40 PTRH 0.47% 0.0% 54% 901081 3.76 V
2026-05-06 23:39:30 RX01 0.03% 0.0% 101% 23851 0.0 V
2026-05-06 23:39:29 DOS 2.07% 3.9% 101% 222028 4.21 V
2026-05-06 23:39:29 DOS 2.07% 3.9% 101% 222028 4.21 V
2026-05-06 23:39:29 RX01 0.03% 0.0% 101% 23851 0.0 V
2026-05-06 23:39:29 DOS 2.07% 3.9% 101% 222028 4.21 V
2026-05-06 23:39:28 DOS 2.07% 3.9% 101% 222028 4.21 V
2026-05-06 23:39:27 PTRH 0.47% 0.0% 54% 901081 3.76 V
2026-05-06 23:39:27 PTRH 0.47% 0.0% 54% 901081 3.76 V
2026-05-06 23:39:27 DOS 2.07% 3.9% 101% 222028 4.21 V
2026-05-06 23:39:26 DOS 2.07% 3.9% 101% 222028 4.21 V
2026-05-06 23:39:26 DOS 2.07% 3.9% 101% 222028 4.21 V
2026-05-06 23:37:33 LMBt 0.22% 3.4% 60% 152182 3.81 V
2026-05-06 23:37:31 LMBt 0.22% 3.4% 60% 152182 3.81 V
2026-05-06 23:37:31 LMBt 0.22% 3.4% 60% 152182 3.81 V
2026-05-06 23:37:28 LMBt 0.22% 3.4% 60% 152182 3.81 V
2026-05-06 23:37:28 LMBt 0.22% 3.4% 60% 152182 3.81 V
2026-05-06 23:37:25 LMBt 0.22% 3.4% 60% 152182 3.81 V
2026-05-06 23:37:25 LMBt 0.22% 3.4% 60% 152182 3.81 V
2026-05-06 23:37:22 LMBt 0.22% 3.4% 60% 152182 3.81 V
2026-05-06 23:34:49 6b46 0.08% 3.9% 44% 2440739 3.67 V
2026-05-06 23:34:49 6b46 0.08% 3.9% 44% 2440739 3.67 V
2026-05-06 23:34:20 PcL1 0.08% 0.0% 99% 8701 4.18 V
2026-05-06 23:34:19 PcL1 0.08% 0.0% 99% 8701 4.18 V
2026-05-06 23:33:46 htec 4.99% 8.3% 101% 19912 4.21 V
2026-05-06 23:33:45 htec 4.99% 8.3% 101% 19912 4.21 V
2026-05-06 23:33:38 JR70 0.33% 88% 6104717 4.04 V
2026-05-06 23:33:38 JR70 0.33% 88% 6104717 4.04 V
2026-05-06 23:33:27 21a9 1020.44 hPa 47.49% 17.12°C
2026-05-06 23:33:27 21a9 1020.44 hPa 47.49% 17.12°C
2026-05-06 23:33:00 21a9 0.39% 2.0% 66% 730944 3.86 V
2026-05-06 23:32:59 21a9 0.39% 2.0% 66% 730944 3.86 V
2026-05-06 23:32:56 LRX1 1011.42 hPa 51.3% 21.46°C
2026-05-06 23:32:56 LRX1 1011.42 hPa 51.3% 21.46°C
2026-05-06 23:32:53 LRX1 1011.42 hPa 51.3% 21.46°C
2026-05-06 23:32:53 LRX1 1011.42 hPa 51.3% 21.46°C
2026-05-06 23:32:52 LRX1 1011.42 hPa 51.3% 21.46°C
2026-05-06 23:32:46 LRX1 1011.42 hPa 51.3% 21.46°C
2026-05-06 23:32:45 LRX1 1011.42 hPa 51.3% 21.46°C
2026-05-06 23:32:45 LRX1 1011.42 hPa 51.3% 21.46°C
2026-05-06 23:32:38 RF03 0.18% 5.2% 66% 5526 3.75 V
2026-05-06 23:32:38 RF03 0.18% 5.2% 66% 5526 3.75 V
2026-05-06 23:32:37 RF03 0.18% 5.2% 66% 5526 3.75 V
2026-05-06 23:32:30 RF03 0.18% 5.2% 66% 5526 3.75 V
2026-05-06 23:32:29 RF03 0.18% 5.2% 66% 5526 3.75 V
2026-05-06 23:32:29 RF03 0.18% 5.2% 66% 5526 3.75 V
2026-05-06 23:31:28 LRX1 1.22% 13.5% 97% 91287 4.15 V
2026-05-06 23:31:16 LRX1 1.22% 13.5% 97% 91287 4.15 V
2026-05-06 23:31:16 LRX1 1.22% 13.5% 97% 91287 4.15 V
2026-05-06 23:31:15 LRX1 1.22% 13.5% 97% 91287 4.15 V
2026-05-06 23:31:15 LRX1 1.22% 13.5% 97% 91287 4.15 V
2026-05-06 23:31:06 7274 0.37% 0.0% 100% 7737170 4.11 V
2026-05-06 23:31:06 7274 0.37% 0.0% 100% 7737170 4.11 V
2026-05-06 23:30:39 SMWS 0.92% 0.9% 33% 737737 3.57 V
2026-05-06 23:30:39 SMWS 0.92% 0.9% 33% 737737 3.57 V
2026-05-06 23:29:35 RF02 1.58% 23.0% 101% 2708661 4.21 V
2026-05-06 23:29:35 RF02 1.58% 23.0% 101% 2708661 4.21 V
2026-05-06 23:29:34 RF02 1.58% 23.0% 101% 2708661 4.21 V
2026-05-06 23:28:37 Aero 1.54% 11.6% 101% 3668 3.89 V
2026-05-06 23:28:37 Aero 1.54% 11.6% 101% 3668 3.89 V
2026-05-06 23:27:47 MELK 0.23% 3.6% 96% 4375977 4.14 V
2026-05-06 23:27:47 MELK 0.23% 3.6% 96% 4375977 4.14 V
2026-05-06 23:27:46 MELK 0.23% 3.6% 96% 4375977 4.14 V
2026-05-06 23:27:45 MELK 0.23% 3.6% 96% 4375977 4.14 V
2026-05-06 23:27:45 MELK 0.23% 3.6% 96% 4375977 4.14 V
2026-05-06 23:26:41 LMGB 0.07% 0.0% 101% 67074 -0.0 V
2026-05-06 23:26:41 LMGB 0.07% 0.0% 101% 67074 -0.0 V
2026-05-06 23:25:58 2625 0.23% 2.0% 100% 864127 4.19 V
2026-05-06 23:25:58 2625 0.23% 2.0% 100% 864127 4.19 V
2026-05-06 23:24:49 Wdst 1.02% 7.0% 72% 4321081 3.92 V
2026-05-06 23:24:48 Wdst 1.02% 7.0% 72% 4321081 3.92 V
2026-05-06 23:24:48 Wdst 1.02% 7.0% 72% 4321081 3.92 V
2026-05-06 23:24:09 CLA1 3.24% 4.2% 101% 732078 4.08 V
2026-05-06 23:24:04 CLA1 3.24% 4.2% 101% 732078 4.08 V
2026-05-06 23:24:04 ah01 0.04% 6.0% 94% 61 4.11 V
2026-05-06 23:24:04 CLA1 3.24% 4.2% 101% 732078 4.08 V
2026-05-06 23:24:03 ah01 0.04% 6.0% 94% 61 4.11 V
2026-05-06 23:24:02 ah01 0.04% 6.0% 94% 61 4.11 V
2026-05-06 23:24:01 CLA1 3.24% 4.2% 101% 732078 4.08 V
2026-05-06 23:24:01 CLA1 3.24% 4.2% 101% 732078 4.08 V
2026-05-06 23:24:01 CLA1 3.24% 4.2% 101% 732078 4.08 V
2026-05-06 23:24:00 ah01 0.04% 6.0% 94% 61 4.11 V
2026-05-06 23:23:59 ah01 0.04% 6.0% 94% 61 4.11 V
2026-05-06 23:23:58 ah01 0.04% 6.0% 94% 61 4.11 V
2026-05-06 23:23:53 ah01 0.04% 6.0% 94% 61 4.11 V
2026-05-06 23:23:53 ah01 0.04% 6.0% 94% 61 4.11 V
2026-05-06 23:23:32 PMT2 23.57°C
2026-05-06 23:23:32 PMT2 23.57°C
2026-05-06 23:23:29 PMT2 23.57°C
2026-05-06 23:23:27 PMT2 23.57°C
2026-05-06 23:23:27 PMT2 23.57°C
2026-05-06 23:20:58 HT77 0.32% 0.0% 101% 915939 4.28 V
2026-05-06 23:20:58 HT77 0.32% 0.0% 101% 915939 4.28 V
2026-05-06 23:19:40 HAM2 2.5% 1.0% 91% 1141416 4.07 V
2026-05-06 23:19:40 HAM2 2.5% 1.0% 91% 1141416 4.07 V
2026-05-06 23:19:35 HAM2 2.5% 1.0% 91% 1141416 4.07 V
2026-05-06 23:19:35 HAM2 2.5% 1.0% 91% 1141416 4.07 V
2026-05-06 23:19:34 HAM2 2.5% 1.0% 91% 1141416 4.07 V
2026-05-06 23:19:33 HAM2 2.5% 1.0% 91% 1141416 4.07 V
2026-05-06 23:19:33 HAM2 2.5% 1.0% 91% 1141416 4.07 V
2026-05-06 23:19:31 HAM2 2.5% 1.0% 91% 1141416 4.07 V
2026-05-06 23:19:31 HAM2 2.5% 1.0% 91% 1141416 4.07 V
2026-05-06 23:19:31 HAM2 2.5% 1.0% 91% 1141416 4.07 V
2026-05-06 23:18:47 8e30 1.53% 9.0% 101% 871862 4.3 V
2026-05-06 23:18:46 8e30 1.53% 9.0% 101% 871862 4.3 V
2026-05-06 23:18:40 JR70 0.34% 2.8% 85% 6103814 4.02 V
2026-05-06 23:18:40 JR70 0.34% 2.8% 85% 6103814 4.02 V
2026-05-06 23:17:40 MRB1 1.71% 8.9% 101% 110423 4.28 V
2026-05-06 23:17:40 MRB1 1.71% 8.9% 101% 110423 4.28 V
2026-05-06 23:17:22 4ca4 0.8% 0.0% 93% 1088550 4.1 V
2026-05-06 23:16:57 2369 0.35% 2.1% 6% 58752 3.22 V
2026-05-06 23:16:56 2369 0.35% 2.1% 6% 58752 3.22 V
2026-05-06 23:16:56 BB04 1.28% 4.5% 101% 98421 -0.0 V
2026-05-06 23:16:56 2369 0.35% 2.1% 6% 58752 3.22 V
2026-05-06 23:16:53 BB04 1.28% 4.5% 101% 98421 -0.0 V
2026-05-06 23:16:51 BB04 1.28% 4.5% 101% 98421 -0.0 V
2026-05-06 23:16:51 BB04 1.28% 4.5% 101% 98421 -0.0 V
2026-05-06 23:16:50 BB04 1.28% 4.5% 101% 98421 -0.0 V
2026-05-06 23:16:49 BB04 1.28% 4.5% 101% 98421 -0.0 V
2026-05-06 23:14:15 DJMH 0.44% 0.0% 88% 6424625 4.04 V
2026-05-06 23:14:15 DJMH 0.44% 0.0% 88% 6424625 4.04 V
2026-05-06 23:13:52 MJTM 1.65% 1.1% 101% 1691994 4.23 V
2026-05-06 23:13:38 MJTM 1.65% 1.1% 101% 1691994 4.23 V
2026-05-06 23:13:38 MJTM 1.65% 1.1% 101% 1691994 4.23 V
2026-05-06 23:13:37 MJTM 1.65% 1.1% 101% 1691994 4.23 V
2026-05-06 23:13:36 MJTM 1.65% 1.1% 101% 1691994 4.23 V
2026-05-06 23:13:36 MJTM 1.65% 1.1% 101% 1691994 4.23 V
2026-05-06 23:13:30 MJTM 1.65% 1.1% 101% 1691994 4.23 V
2026-05-06 23:13:29 MJTM 1.65% 1.1% 101% 1691994 4.23 V
2026-05-06 23:12:08 3bb8 1.13% 3.0% 101% 267494 5.03 V
2026-05-06 23:12:06 SMWS 0.92% 9.7% 33% 736602 3.57 V
2026-05-06 23:12:05 SMWS 0.92% 9.7% 33% 736602 3.57 V
2026-05-06 23:12:05 SMWS 0.92% 9.7% 33% 736602 3.57 V
2026-05-06 23:09:49 Wdst 1.08% 9.4% 72% 4320181 3.92 V
2026-05-06 23:09:49 Wdst 1.08% 9.4% 72% 4320181 3.92 V
2026-05-06 23:09:49 Wdst 1.08% 9.4% 72% 4320181 3.92 V
2026-05-06 23:09:19 L1 4.16% 13.3% 101% 359321 4.24 V
2026-05-06 23:09:19 L1 4.16% 13.3% 101% 359321 4.24 V
2026-05-06 23:07:57 1808 2.22% 7.3% 101% 140514 -0.0 V
2026-05-06 23:07:57 1808 2.22% 7.3% 101% 140514 -0.0 V
2026-05-06 23:06:37 HT77 871.04 hPa 47.92% 11.19°C
2026-05-06 23:06:36 HT77 871.04 hPa 47.92% 11.19°C
2026-05-06 23:04:24 1ae9 22.86°C
2026-05-06 23:04:21 1ae9 22.86°C
2026-05-06 23:04:19 1ae9 22.86°C
2026-05-06 23:04:19 1ae9 22.86°C
2026-05-06 23:03:54 LAM2 1.55% 14.2% 101% 41641 4.24 V
2026-05-06 23:03:53 LAM2 1.55% 14.2% 101% 41641 4.24 V
2026-05-06 23:03:52 LAM2 1.55% 14.2% 101% 41641 4.24 V
2026-05-06 23:03:52 LAM2 1.55% 14.2% 101% 41641 4.24 V
2026-05-06 23:03:52 LAM2 1.55% 14.2% 101% 41641 4.24 V
2026-05-06 23:03:48 LAM2 1.55% 14.2% 101% 41641 4.24 V
2026-05-06 23:03:48 LAM2 1.55% 14.2% 101% 41641 4.24 V
2026-05-06 23:03:48 LAM2 1.55% 14.2% 101% 41641 4.24 V
2026-05-06 23:03:48 LAM2 1.55% 14.2% 101% 41641 4.24 V
2026-05-06 23:03:47 JR70 0.33% 2.0% 91% 6102911 4.07 V
2026-05-06 23:03:47 JR70 0.33% 2.0% 91% 6102911 4.07 V
2026-05-06 23:03:34 ah03 1016.76 hPa 83.04% 16.34°C
2026-05-06 23:03:34 ah03 1016.76 hPa 83.04% 16.34°C
2026-05-06 23:03:34 ah03 1016.76 hPa 83.04% 16.34°C
2026-05-06 23:03:32 ah03 1016.76 hPa 83.04% 16.34°C
2026-05-06 23:03:31 ah03 1016.76 hPa 83.04% 16.34°C
2026-05-06 23:03:30 ah03 1016.76 hPa 83.04% 16.34°C
2026-05-06 23:03:30 RF01 1.12% 6.3% 101% 36604 4.24 V
2026-05-06 23:03:28 RF01 1.12% 6.3% 101% 36604 4.24 V
2026-05-06 23:03:28 RF01 1.12% 6.3% 101% 36604 4.24 V
2026-05-06 23:03:28 RX01 0.04% 0.0% 101% 21690 0.0 V
2026-05-06 23:03:28 RF01 1.12% 6.3% 101% 36604 4.24 V
2026-05-06 23:03:28 RX01 0.04% 0.0% 101% 21690 0.0 V
2026-05-06 23:03:27 PTRH 0.45% 2.0% 55% 898921 3.77 V
2026-05-06 23:03:27 PTRH 0.45% 2.0% 55% 898921 3.77 V
2026-05-06 23:03:25 RF06 0.45% 10.0% 101% 4206 6.31 V
2026-05-06 23:03:24 RF06 0.45% 10.0% 101% 4206 6.31 V
2026-05-06 23:03:22 RF06 0.45% 10.0% 101% 4206 6.31 V
2026-05-06 23:03:21 ah03 1016.76 hPa 83.04% 16.34°C
2026-05-06 23:03:21 RF06 0.45% 10.0% 101% 4206 6.31 V
2026-05-06 23:03:21 RF06 0.45% 10.0% 101% 4206 6.31 V
2026-05-06 23:03:21 RF06 0.45% 10.0% 101% 4206 6.31 V
2026-05-06 23:03:21 RF01 1.12% 6.3% 101% 36604 4.24 V
2026-05-06 23:03:21 RF01 1.12% 6.3% 101% 36604 4.24 V
2026-05-06 23:03:21 RF01 1.12% 6.3% 101% 36604 4.24 V
2026-05-06 23:03:20 ah03 1016.76 hPa 83.04% 16.34°C
2026-05-06 23:03:13 RF06 0.45% 10.0% 101% 4206 6.31 V
2026-05-06 23:03:13 RF06 0.45% 10.0% 101% 4206 6.31 V
2026-05-06 23:03:13 RF06 0.45% 10.0% 101% 4206 6.31 V
2026-05-06 22:58:01 Jim1 2.11% 21.8% 90% 6779478 4.06 V
2026-05-06 22:57:47 MELK 0.02% 0.0% 96% 4374176 4.14 V
2026-05-06 22:57:47 MELK 0.02% 0.0% 96% 4374176 4.14 V
2026-05-06 22:57:45 MELK 0.02% 0.0% 96% 4374176 4.14 V
2026-05-06 22:57:45 MELK 0.02% 0.0% 96% 4374176 4.14 V
2026-05-06 22:57:45 MELK 0.02% 0.0% 96% 4374176 4.14 V
2026-05-06 22:57:43 MELK 0.02% 0.0% 96% 4374176 4.14 V
2026-05-06 22:57:42 MELK 0.02% 0.0% 96% 4374176 4.14 V
2026-05-06 22:57:42 MELK 0.02% 0.0% 96% 4374176 4.14 V
2026-05-06 22:57:39 Jim1 2.11% 21.8% 90% 6779478 4.06 V
2026-05-06 22:57:39 Jim1 2.11% 21.8% 90% 6779478 4.06 V
2026-05-06 22:57:20 976c 0.81% 0.0% 101% 4620930 4.22 V
2026-05-06 22:57:19 976c 0.81% 0.0% 101% 4620930 4.22 V
2026-05-06 22:55:57 2625 0.23% 3.1% 100% 862327 4.19 V
2026-05-06 22:55:57 2625 0.23% 3.1% 100% 862327 4.19 V
2026-05-06 22:55:33 RF03 0.35% 4.1% 67% 3306 3.75 V
2026-05-06 22:55:32 RF03 0.35% 4.1% 67% 3306 3.75 V
2026-05-06 22:55:32 RF03 0.35% 4.1% 67% 3306 3.75 V
2026-05-06 22:55:06 7274 0.46% 1.2% 100% 7735009 4.11 V
2026-05-06 22:55:05 7274 0.46% 1.2% 100% 7735009 4.11 V
2026-05-06 22:55:05 7274 0.46% 1.2% 100% 7735009 4.11 V
2026-05-06 22:55:03 Wdst 1.16% 6.7% 72% 4319280 3.92 V
2026-05-06 22:55:03 Wdst 1.16% 6.7% 72% 4319280 3.92 V
2026-05-06 22:55:02 Wdst 1.16% 6.7% 72% 4319280 3.92 V
2026-05-06 22:53:50 LRX1 1011.21 hPa 47.39% 22.28°C
2026-05-06 22:53:48 LRX1 1011.21 hPa 47.39% 22.28°C
2026-05-06 22:53:48 LRX1 1011.21 hPa 47.39% 22.28°C
2026-05-06 22:53:48 LRX1 1011.21 hPa 47.39% 22.28°C
2026-05-06 22:53:47 LRX1 1011.21 hPa 47.39% 22.28°C
2026-05-06 22:53:45 LRX1 1011.21 hPa 47.39% 22.28°C
2026-05-06 22:53:45 LRX1 1011.21 hPa 47.39% 22.28°C
2026-05-06 22:53:44 LRX1 1011.21 hPa 47.39% 22.28°C
2026-05-06 22:52:41 SMWS 0.9% 3.0% 33% 735463 3.57 V
2026-05-06 22:52:40 SMWS 0.9% 3.0% 33% 735463 3.57 V
2026-05-06 22:52:40 SMWS 0.9% 3.0% 33% 735463 3.57 V
2026-05-06 22:52:22 LRX1 1.59% 3.2% 98% 88946 4.17 V
2026-05-06 22:52:22 LRX1 1.59% 3.2% 98% 88946 4.17 V
2026-05-06 22:52:21 LRX1 1.59% 3.2% 98% 88946 4.17 V
2026-05-06 22:52:20 LRX1 1.59% 3.2% 98% 88946 4.17 V
2026-05-06 22:52:20 LRX1 1.59% 3.2% 98% 88946 4.17 V
2026-05-06 22:52:19 LRX1 1.59% 3.2% 98% 88946 4.17 V
2026-05-06 22:52:19 LRX1 1.59% 3.2% 98% 88946 4.17 V
2026-05-06 22:52:18 LRX1 1.59% 3.2% 98% 88946 4.17 V
2026-05-06 22:50:39 LMGB 0.07% 0.0% 101% 64912 -0.0 V
2026-05-06 22:50:39 LMGB 0.07% 0.0% 101% 64912 -0.0 V
2026-05-06 22:49:46 HAM2 2.53% 6.6% 91% 1139615 4.07 V
2026-05-06 22:49:44 HAM2 2.53% 6.6% 91% 1139615 4.07 V
2026-05-06 22:49:38 HAM2 2.53% 6.6% 91% 1139615 4.07 V
2026-05-06 22:49:37 HAM2 2.53% 6.6% 91% 1139615 4.07 V
2026-05-06 22:49:36 HAM2 2.53% 6.6% 91% 1139615 4.07 V
2026-05-06 22:49:35 HAM2 2.53% 6.6% 91% 1139615 4.07 V
2026-05-06 22:49:35 HAM2 2.53% 6.6% 91% 1139615 4.07 V
2026-05-06 22:48:49 HT77 871.17 hPa 48.06% 11.39°C
2026-05-06 22:48:49 HT77 871.17 hPa 48.06% 11.39°C
2026-05-06 22:48:34 IIXF 851.13 hPa 37.96% 22.15°C 230.44 Ohm
2026-05-06 22:48:33 IIXF 851.13 hPa 37.96% 22.15°C 230.44 Ohm
2026-05-06 22:48:29 JR70 0.35% 81% 6102008 4.0 V
2026-05-06 22:48:29 JR70 0.35% 81% 6102008 4.0 V
2026-05-06 22:48:16 IIXF 0.56% 0.0% 101% 217161 4.28 V
2026-05-06 22:48:16 IIXF 0.56% 0.0% 101% 217161 4.28 V
2026-05-06 22:47:00 PMT2 2.19% 6.8% 78% 2820819 4.01 V
2026-05-06 22:47:00 PMT2 2.19% 6.8% 78% 2820819 4.01 V
2026-05-06 22:46:59 PMT2 2.19% 6.8% 78% 2820819 4.01 V
2026-05-06 22:46:58 PMT2 2.19% 6.8% 78% 2820819 4.01 V
2026-05-06 22:46:56 PMT2 2.19% 6.8% 78% 2820819 4.01 V
2026-05-06 22:46:56 PMT2 2.19% 6.8% 78% 2820819 4.01 V
2026-05-06 22:46:24 PMT2 23.8°C
2026-05-06 22:46:24 PMT2 23.8°C
2026-05-06 22:46:23 PMT2 23.8°C
2026-05-06 22:46:22 PMT2 23.8°C
2026-05-06 22:46:21 PMT2 23.8°C
2026-05-06 22:46:21 PMT2 23.8°C
2026-05-06 22:46:19 PcL1 0.08% 0.0% 98% 5821 4.16 V
2026-05-06 22:46:19 PcL1 0.08% 0.0% 98% 5821 4.16 V
2026-05-06 22:45:36 e40c 0.25% 0.0% 101% 309328 4.26 V
2026-05-06 22:44:56 HT77 0.3% 3.2% 101% 913779 4.28 V
2026-05-06 22:44:56 HT77 0.3% 3.2% 101% 913779 4.28 V
2026-05-06 22:44:09 DJMH 0.46% 0.0% 88% 6422824 4.04 V
2026-05-06 22:44:09 DJMH 0.46% 0.0% 88% 6422824 4.04 V
2026-05-06 22:43:57 ah02 97.39% 16.01°C
2026-05-06 22:43:56 ah02 97.39% 16.01°C
2026-05-06 22:43:55 ah02 97.39% 16.01°C
2026-05-06 22:43:55 ah02 97.39% 16.01°C
2026-05-06 22:43:51 ah02 97.39% 16.01°C
2026-05-06 22:43:51 ah02 97.39% 16.01°C
2026-05-06 22:43:30 ah02 0.04% 18.5% 66% 61 3.86 V
2026-05-06 22:43:30 ah02 0.04% 18.5% 66% 61 3.86 V
2026-05-06 22:43:28 ah02 0.04% 18.5% 66% 61 3.86 V
2026-05-06 22:43:28 ah02 0.04% 18.5% 66% 61 3.86 V
2026-05-06 22:43:28 ah02 0.04% 18.5% 66% 61 3.86 V
2026-05-06 22:41:47 LMBs 24.32°C
2026-05-06 22:41:47 LMBs 24.32°C
2026-05-06 22:41:14 4ca4 0.78% 0.0% 94% 1086381 4.11 V
2026-05-06 22:39:47 Wdst 1.11% 12.3% 72% 4318380 3.92 V
2026-05-06 22:39:46 Wdst 1.11% 12.3% 72% 4318380 3.92 V
2026-05-06 22:39:46 Wdst 1.11% 12.3% 72% 4318380 3.92 V
2026-05-06 22:39:34 DOS 2.31% 2.1% 101% 218428 4.21 V
2026-05-06 22:39:30 DOS 2.31% 2.1% 101% 218428 4.21 V
2026-05-06 22:39:30 DOS 2.31% 2.1% 101% 218428 4.21 V
2026-05-06 22:39:30 DOS 2.31% 2.1% 101% 218428 4.21 V
2026-05-06 22:39:30 DOS 2.31% 2.1% 101% 218428 4.21 V
2026-05-06 22:39:28 DOS 2.31% 2.1% 101% 218428 4.21 V
2026-05-06 22:39:25 DOS 2.31% 2.1% 101% 218428 4.21 V
2026-05-06 22:39:25 DOS 2.31% 2.1% 101% 218428 4.21 V
2026-05-06 22:37:44 2-D 0.35% 2.0% 101% 12868988 4.22 V
2026-05-06 22:37:44 2-D 0.35% 2.0% 101% 12868988 4.22 V
2026-05-06 22:34:35 RF02 1.75% 13.5% 101% 2705361 4.21 V
2026-05-06 22:34:35 RF02 1.75% 13.5% 101% 2705361 4.21 V
2026-05-06 22:34:35 RF02 1.75% 13.5% 101% 2705361 4.21 V
2026-05-06 22:33:39 SMWS 0.87% 8.0% 34% 734326 3.57 V
2026-05-06 22:33:37 SMWS 0.87% 8.0% 34% 734326 3.57 V
2026-05-06 22:33:37 SMWS 0.87% 8.0% 34% 734326 3.57 V
2026-05-06 22:33:27 21a9 1020.62 hPa 47.41% 17.22°C
2026-05-06 22:33:26 JR70 0.41% 3.0% 89% 6101105 4.04 V
2026-05-06 22:33:26 21a9 1020.62 hPa 47.41% 17.22°C
2026-05-06 22:33:26 JR70 0.41% 3.0% 89% 6101105 4.04 V
2026-05-06 22:33:00 21a9 0.29% 1.7% 67% 727344 3.87 V
2026-05-06 22:33:00 21a9 0.29% 1.7% 67% 727344 3.87 V
2026-05-06 22:30:36 HT77 871.04 hPa 48.12% 11.57°C
2026-05-06 22:30:36 HT77 871.04 hPa 48.12% 11.57°C
2026-05-06 22:30:34 IIXF 851.07 hPa 37.91% 22.17°C 229.8 Ohm
2026-05-06 22:30:33 IIXF 851.07 hPa 37.91% 22.17°C 229.8 Ohm
2026-05-06 22:30:16 IIXF 0.57% 0.0% 101% 216081 4.28 V
2026-05-06 22:30:16 IIXF 0.57% 0.0% 101% 216081 4.28 V
2026-05-06 22:28:38 Aero 0.06% 16.6% 101% 68 3.4 V
2026-05-06 22:28:38 Aero 0.06% 16.6% 101% 68 3.4 V
2026-05-06 22:27:48 MELK 0.09% 0.0% 96% 4372376 4.14 V
2026-05-06 22:27:44 MELK 0.09% 0.0% 96% 4372376 4.14 V
2026-05-06 22:27:44 MELK 0.09% 0.0% 96% 4372376 4.14 V
2026-05-06 22:27:44 MELK 0.09% 0.0% 96% 4372376 4.14 V
2026-05-06 22:27:43 MELK 0.09% 0.0% 96% 4372376 4.14 V
2026-05-06 22:27:42 MELK 0.09% 0.0% 96% 4372376 4.14 V
2026-05-06 22:27:42 MELK 0.09% 0.0% 96% 4372376 4.14 V
2026-05-06 22:27:39 PTRH 0.49% 0.0% 59% 896761 3.8 V
2026-05-06 22:27:39 PTRH 0.49% 0.0% 59% 896761 3.8 V
2026-05-06 22:27:27 PTRH 0.49% 0.0% 59% 896761 3.8 V
2026-05-06 22:27:27 RX01 0.02% 0.0% 101% 19528 0.0 V
2026-05-06 22:27:27 PTRH 0.49% 0.0% 59% 896761 3.8 V
2026-05-06 22:27:26 RX01 0.02% 0.0% 101% 19528 0.0 V
2026-05-06 22:26:55 HT77 0.33% 0.0% 101% 912699 4.28 V
2026-05-06 22:26:54 HT77 0.33% 0.0% 101% 912699 4.28 V
2026-05-06 22:26:20 2369 0.46% 6.1% 6% 55691 3.23 V
2026-05-06 22:26:20 2369 0.46% 6.1% 6% 55691 3.23 V
2026-05-06 22:26:01 2369 0.46% 6.1% 6% 55691 3.23 V
2026-05-06 22:26:01 2369 0.46% 6.1% 6% 55691 3.23 V
2026-05-06 22:26:01 2369 0.46% 6.1% 6% 55691 3.23 V
2026-05-06 22:26:00 2369 0.46% 6.1% 6% 55691 3.23 V
2026-05-06 22:25:58 2625 0.28% 0.0% 100% 860527 4.19 V
2026-05-06 22:25:57 2369 0.46% 6.1% 6% 55691 3.23 V
2026-05-06 22:25:57 2369 0.46% 6.1% 6% 55691 3.23 V
2026-05-06 22:25:57 2369 0.46% 6.1% 6% 55691 3.23 V
2026-05-06 22:25:57 2625 0.28% 0.0% 100% 860527 4.19 V
2026-05-06 22:25:36 RF03 0.23% 0.0% 68% 1506 3.76 V
2026-05-06 22:25:34 RF03 0.23% 0.0% 68% 1506 3.76 V
2026-05-06 22:25:34 RF03 0.23% 0.0% 68% 1506 3.76 V
2026-05-06 22:25:34 RF03 0.23% 0.0% 68% 1506 3.76 V
2026-05-06 22:25:31 RF03 0.23% 0.0% 68% 1506 3.76 V
2026-05-06 22:25:29 RF03 0.23% 0.0% 68% 1506 3.76 V
2026-05-06 22:25:29 RF03 0.23% 0.0% 68% 1506 3.76 V
2026-05-06 22:25:29 RF03 0.23% 0.0% 68% 1506 3.76 V
2026-05-06 22:24:31 e536 0.29% 0.0% 92% 47509432 4.08 V
2026-05-06 22:24:20 RF06 0.2% 13.5% 101% 1866 6.31 V
2026-05-06 22:24:17 RF06 0.2% 13.5% 101% 1866 6.31 V
2026-05-06 22:24:17 RF06 0.2% 13.5% 101% 1866 6.31 V
2026-05-06 22:24:17 RF06 0.2% 13.5% 101% 1866 6.31 V
2026-05-06 22:24:13 RF06 0.2% 13.5% 101% 1866 6.31 V
2026-05-06 22:24:13 RF06 0.2% 13.5% 101% 1866 6.31 V
2026-05-06 22:24:13 RF06 0.2% 13.5% 101% 1866 6.31 V
2026-05-06 22:23:52 LRX1 1011.36 hPa 44.14% 26.65°C
2026-05-06 22:23:51 LRX1 1011.36 hPa 44.14% 26.65°C
2026-05-06 22:23:50 LRX1 1011.36 hPa 44.14% 26.65°C
2026-05-06 22:23:50 LRX1 1011.36 hPa 44.14% 26.65°C
2026-05-06 22:23:48 LRX1 1011.36 hPa 44.14% 26.65°C
2026-05-06 22:23:48 LRX1 1011.36 hPa 44.14% 26.65°C
2026-05-06 22:23:48 LRX1 1011.36 hPa 44.14% 26.65°C
2026-05-06 22:23:27 MJTH 2.21% 8.2% 74% 1739376 3.94 V
2026-05-06 22:23:27 MJTH 2.21% 8.2% 74% 1739376 3.94 V
2026-05-06 22:23:10 MJTH 2.21% 8.2% 74% 1739376 3.94 V
2026-05-06 22:23:09 MJTH 2.21% 8.2% 74% 1739376 3.94 V
2026-05-06 22:23:08 MJTH 2.21% 8.2% 74% 1739376 3.94 V
2026-05-06 22:23:07 MJTH 2.21% 8.2% 74% 1739376 3.94 V
2026-05-06 22:23:06 MJTH 2.21% 8.2% 74% 1739376 3.94 V
2026-05-06 22:23:05 MJTH 2.21% 8.2% 74% 1739376 3.94 V
2026-05-06 22:22:42 6b46 0.07% 0.0% 44% 2436419 3.67 V
2026-05-06 22:22:42 6b46 0.07% 0.0% 44% 2436419 3.67 V
2026-05-06 22:20:17 LRX1 1.48% 6.3% 101% 87024 4.52 V
2026-05-06 22:20:16 LRX1 1.48% 6.3% 101% 87024 4.52 V
2026-05-06 22:20:15 LRX1 1.48% 6.3% 101% 87024 4.52 V
2026-05-06 22:20:14 LRX1 1.48% 6.3% 101% 87024 4.52 V
2026-05-06 22:20:13 LRX1 1.48% 6.3% 101% 87024 4.52 V
2026-05-06 22:20:13 LRX1 1.48% 6.3% 101% 87024 4.52 V
2026-05-06 22:20:12 LRX1 1.48% 6.3% 101% 87024 4.52 V
2026-05-06 22:19:36 HAM2 2.28% 0.0% 91% 1137815 4.07 V
2026-05-06 22:19:34 HAM2 2.28% 0.0% 91% 1137815 4.07 V
2026-05-06 22:19:33 HAM2 2.28% 0.0% 91% 1137815 4.07 V
2026-05-06 22:19:32 HAM2 2.28% 0.0% 91% 1137815 4.07 V
2026-05-06 22:19:32 HAM2 2.28% 0.0% 91% 1137815 4.07 V
2026-05-06 22:19:31 HAM2 2.28% 0.0% 91% 1137815 4.07 V
2026-05-06 22:19:31 HAM2 2.28% 0.0% 91% 1137815 4.07 V
2026-05-06 22:19:31 HAM2 2.28% 0.0% 91% 1137815 4.07 V
2026-05-06 22:19:05 7274 0.41% 0.6% 100% 7732849 4.11 V
2026-05-06 22:19:05 7274 0.41% 0.6% 100% 7732849 4.11 V
2026-05-06 22:19:05 7274 0.41% 0.6% 100% 7732849 4.11 V
2026-05-06 22:18:21 JR70 0.45% 91% 6100201 4.07 V
2026-05-06 22:18:21 JR70 0.45% 91% 6100201 4.07 V
2026-05-06 22:17:22 1ae9 22.63°C
2026-05-06 22:17:21 1ae9 22.63°C
2026-05-06 22:17:19 1ae9 22.63°C
2026-05-06 22:17:19 1ae9 22.63°C
2026-05-06 22:15:38 SMWS 0.82% 4.9% 34% 733232 3.58 V
2026-05-06 22:15:37 SMWS 0.82% 4.9% 34% 733232 3.58 V
2026-05-06 22:14:37 LMGB 0.06% 0.0% 101% 62750 -0.0 V
2026-05-06 22:14:37 LMGB 0.06% 0.0% 101% 62750 -0.0 V
2026-05-06 22:14:27 LMBt 0.29% 11.9% 61% 147202 3.81 V
2026-05-06 22:14:26 LMBt 0.29% 11.9% 61% 147202 3.81 V
2026-05-06 22:14:25 LMBt 0.29% 11.9% 61% 147202 3.81 V
2026-05-06 22:14:25 LMBt 0.29% 11.9% 61% 147202 3.81 V
2026-05-06 22:14:24 LMBt 0.29% 11.9% 61% 147202 3.81 V
2026-05-06 22:14:24 LMBt 0.29% 11.9% 61% 147202 3.81 V
2026-05-06 22:14:22 LMBt 0.29% 11.9% 61% 147202 3.81 V
2026-05-06 22:14:21 LMBt 0.29% 11.9% 61% 147202 3.81 V
2026-05-06 22:14:06 DJMH 0.38% 3.4% 88% 6421024 4.04 V
2026-05-06 22:14:06 DJMH 0.38% 3.4% 88% 6421024 4.04 V
2026-05-06 22:14:01 MJTM 2.01% 6.4% 101% 1688393 4.22 V
2026-05-06 22:13:59 MJTM 2.01% 6.4% 101% 1688393 4.22 V
2026-05-06 22:13:59 MJTM 2.01% 6.4% 101% 1688393 4.22 V
2026-05-06 22:13:48 MJTM 2.01% 6.4% 101% 1688393 4.22 V
2026-05-06 22:13:48 MJTM 2.01% 6.4% 101% 1688393 4.22 V
2026-05-06 22:13:47 MJTM 2.01% 6.4% 101% 1688393 4.22 V
2026-05-06 22:13:46 LMBr 2.28% 13.4% 93% 3799414 4.1 V
2026-05-06 22:13:46 MJTM 2.01% 6.4% 101% 1688393 4.22 V
2026-05-06 22:13:44 LMBr 2.28% 13.4% 93% 3799414 4.1 V
2026-05-06 22:13:44 LMBr 2.28% 13.4% 93% 3799414 4.1 V
2026-05-06 22:13:43 MJTM 2.01% 6.4% 101% 1688393 4.22 V
2026-05-06 22:13:43 MJTM 2.01% 6.4% 101% 1688393 4.22 V
2026-05-06 22:13:42 PMT2 24.07°C
2026-05-06 22:13:42 PMT2 24.07°C
2026-05-06 22:13:40 LMBr 2.28% 13.4% 93% 3799414 4.1 V
2026-05-06 22:13:40 LMBr 2.28% 13.4% 93% 3799414 4.1 V
2026-05-06 22:13:40 LMBr 2.28% 13.4% 93% 3799414 4.1 V
2026-05-06 22:13:34 PMT2 24.07°C
2026-05-06 22:13:28 LMBr 2.28% 13.4% 93% 3799414 4.1 V
2026-05-06 22:13:28 LMBr 2.28% 13.4% 93% 3799414 4.1 V
2026-05-06 22:13:24 PMT2 24.07°C
2026-05-06 22:13:24 PMT2 24.07°C
2026-05-06 22:12:36 HT77 870.85 hPa 47.9% 11.68°C
2026-05-06 22:12:35 HT77 870.85 hPa 47.9% 11.68°C
2026-05-06 22:12:33 IIXF 851.04 hPa 38.34% 22.19°C 226.33 Ohm
2026-05-06 22:12:33 IIXF 851.04 hPa 38.34% 22.19°C 226.33 Ohm
2026-05-06 22:12:16 IIXF 0.53% 0.0% 101% 215001 4.28 V
2026-05-06 22:12:16 IIXF 0.53% 0.0% 101% 215001 4.28 V
2026-05-06 22:09:48 Wdst 1.15% 2.1% 72% 4316579 3.91 V
2026-05-06 22:09:47 Wdst 1.15% 2.1% 72% 4316579 3.91 V
2026-05-06 22:09:47 Wdst 1.15% 2.1% 72% 4316579 3.91 V
2026-05-06 22:09:35 e40c 0.26% 0.0% 101% 307168 4.26 V
2026-05-06 22:08:55 HT77 0.33% 2.8% 101% 911619 4.28 V
2026-05-06 22:08:54 HT77 0.33% 2.8% 101% 911619 4.28 V
2026-05-06 22:07:45 2-D 0.36% 2.0% 101% 12867188 4.24 V
2026-05-06 22:07:44 2-D 0.36% 2.0% 101% 12867188 4.24 V
2026-05-06 22:03:27 JR70 0.44% 80% 6099298 3.99 V
2026-05-06 22:03:27 JR70 0.44% 80% 6099298 3.99 V
2026-05-06 22:01:40 RF03 0.03% 8.8% 69% 66 3.76 V
2026-05-06 22:01:38 RF03 0.03% 8.8% 69% 66 3.76 V
2026-05-06 22:01:38 RF03 0.03% 8.8% 69% 66 3.76 V
2026-05-06 22:01:35 RF03 0.03% 8.8% 69% 66 3.76 V
2026-05-06 22:01:34 RF03 0.03% 8.8% 69% 66 3.76 V
2026-05-06 22:01:31 RF03 0.03% 8.8% 69% 66 3.76 V
2026-05-06 22:01:29 RF03 0.03% 8.8% 69% 66 3.76 V
2026-05-06 22:01:28 RF03 0.03% 8.8% 69% 66 3.76 V
2026-05-06 21:58:19 PcL1 0.12% 0.9% 101% 2941 4.22 V
2026-05-06 21:58:19 PcL1 0.12% 0.9% 101% 2941 4.22 V
2026-05-06 21:57:31 SMWS 0.87% 6.4% 35% 732146 3.58 V
2026-05-06 21:57:30 SMWS 0.87% 6.4% 35% 732146 3.58 V
2026-05-06 21:57:30 SMWS 0.87% 6.4% 35% 732146 3.58 V
2026-05-06 21:57:19 976c 0.81% 0.0% 101% 4617330 4.22 V
2026-05-06 21:57:19 976c 0.81% 0.0% 101% 4617330 4.22 V
2026-05-06 21:55:57 2625 0.23% 3.4% 100% 858727 4.19 V
2026-05-06 21:55:57 2625 0.23% 3.4% 100% 858727 4.19 V
2026-05-06 21:54:56 RLSC 1001.07 hPa 74.68% 14.26°C
2026-05-06 21:54:46 Wdst 1.3% 7.9% 70% 4315679 3.89 V
2026-05-06 21:54:46 Wdst 1.3% 7.9% 70% 4315679 3.89 V
2026-05-06 21:54:35 HT77 870.94 hPa 47.73% 11.85°C
2026-05-06 21:54:35 HT77 870.94 hPa 47.73% 11.85°C
2026-05-06 21:54:33 IIXF 850.9 hPa 37.58% 22.21°C 226.65 Ohm
2026-05-06 21:54:33 IIXF 850.9 hPa 37.58% 22.21°C 226.65 Ohm
2026-05-06 21:54:30 RF06 0.04% 17.3% 101% 66 6.31 V
2026-05-06 21:54:30 RF06 0.04% 17.3% 101% 66 6.31 V
2026-05-06 21:54:30 RF06 0.04% 17.3% 101% 66 6.31 V
2026-05-06 21:54:16 IIXF 0.58% 0.0% 101% 213921 4.28 V
2026-05-06 21:54:16 IIXF 0.58% 0.0% 101% 213921 4.28 V
2026-05-06 21:53:47 MRB1 1.88% 7.1% 101% 105376 4.23 V
2026-05-06 21:53:47 MRB1 1.88% 7.1% 101% 105376 4.23 V
2026-05-06 21:53:43 MRB1 1.88% 7.1% 101% 105376 4.23 V
2026-05-06 21:53:42 MRB1 1.88% 7.1% 101% 105376 4.23 V
2026-05-06 21:53:33 MRB1 1.88% 7.1% 101% 105376 4.23 V
2026-05-06 21:53:33 MRB1 1.88% 7.1% 101% 105376 4.23 V
2026-05-06 21:51:38 8e30 1.6% 10.3% 101% 866642 4.3 V
2026-05-06 21:51:38 8e30 1.6% 10.3% 101% 866642 4.3 V
2026-05-06 21:51:26 PTRH 0.48% 0.0% 49% 894600 3.72 V
2026-05-06 21:51:26 PTRH 0.48% 0.0% 49% 894600 3.72 V
2026-05-06 21:51:25 RX01 0.02% 1.6% 101% 17367 0.0 V
2026-05-06 21:51:25 RX01 0.02% 1.6% 101% 17367 0.0 V
2026-05-06 21:50:54 HT77 0.34% 0.0% 101% 910539 4.28 V
2026-05-06 21:50:54 HT77 0.34% 0.0% 101% 910539 4.28 V
2026-05-06 21:50:27 LRX1 1.34% 9.2% 101% 85223 4.42 V
2026-05-06 21:50:27 LRX1 1.34% 9.2% 101% 85223 4.42 V
2026-05-06 21:50:26 LRX1 1.34% 9.2% 101% 85223 4.42 V
2026-05-06 21:50:26 LRX1 1.34% 9.2% 101% 85223 4.42 V
2026-05-06 21:50:25 LRX1 1.34% 9.2% 101% 85223 4.42 V
2026-05-06 21:50:24 LRX1 1.34% 9.2% 101% 85223 4.42 V
2026-05-06 21:50:23 LRX1 1.34% 9.2% 101% 85223 4.42 V
2026-05-06 21:50:20 LRX1 1.34% 9.2% 101% 85223 4.42 V
2026-05-06 21:50:20 LRX1 1.34% 9.2% 101% 85223 4.42 V
2026-05-06 21:50:20 LRX1 1.34% 9.2% 101% 85223 4.42 V
2026-05-06 21:50:12 ah03
2026-05-06 21:50:12 ah03
2026-05-06 21:50:04 ah03
2026-05-06 21:50:04 ah03
2026-05-06 21:50:02 ah03
2026-05-06 21:50:02 ah03
2026-05-06 21:49:32 HAM2 2.14% 0.0% 91% 1136015 4.07 V
2026-05-06 21:49:32 HAM2 2.14% 0.0% 91% 1136015 4.07 V
2026-05-06 21:49:32 HAM2 2.14% 0.0% 91% 1136015 4.07 V
2026-05-06 21:49:31 HAM2 2.14% 0.0% 91% 1136015 4.07 V
2026-05-06 21:49:30 HAM2 2.14% 0.0% 91% 1136015 4.07 V
2026-05-06 21:49:30 HAM2 2.14% 0.0% 91% 1136015 4.07 V
2026-05-06 21:48:45 htec 4.65% 6.0% 101% 13612 4.24 V
2026-05-06 21:48:45 htec 4.65% 6.0% 101% 13612 4.24 V
2026-05-06 21:48:41 RF02 1.52% 12.5% 101% 2702601 4.21 V
2026-05-06 21:48:41 RF02 1.52% 12.5% 101% 2702601 4.21 V
2026-05-06 21:48:41 RF02 1.52% 12.5% 101% 2702601 4.21 V
2026-05-06 21:48:40 RF02 1.52% 12.5% 101% 2702601 4.21 V
2026-05-06 21:48:38 RF02 1.52% 12.5% 101% 2702601 4.21 V
2026-05-06 21:48:38 RF02 1.52% 12.5% 101% 2702601 4.21 V
2026-05-06 21:48:35 RF02 1.52% 12.5% 101% 2702601 4.21 V
2026-05-06 21:48:34 RF02 1.52% 12.5% 101% 2702601 4.21 V
2026-05-06 21:48:34 RF02 1.52% 12.5% 101% 2702601 4.21 V
2026-05-06 21:48:16 JR70 0.39% 90% 6098395 4.05 V
2026-05-06 21:48:16 JR70 0.39% 90% 6098395 4.05 V
2026-05-06 21:46:52 6b46 0.05% 0.0% 43% 2434258 3.67 V
2026-05-06 21:46:51 6b46 0.05% 0.0% 43% 2434258 3.67 V
2026-05-06 21:44:13 2369 0.44% 12.2% 7% 53171 3.24 V
2026-05-06 21:44:08 DJMH 0.36% 0.0% 89% 6419224 4.05 V
2026-05-06 21:44:07 DJMH 0.36% 0.0% 89% 6419224 4.05 V
2026-05-06 21:44:06 2369 0.44% 12.2% 7% 53171 3.24 V
2026-05-06 21:44:05 2369 0.44% 12.2% 7% 53171 3.24 V
2026-05-06 21:44:04 PMT2 1.89% 5.8% 83% 2817038 4.04 V
2026-05-06 21:44:04 PMT2 1.89% 5.8% 83% 2817038 4.04 V
2026-05-06 21:44:02 PMT2 1.89% 5.8% 83% 2817038 4.04 V
2026-05-06 21:44:01 PMT2 1.89% 5.8% 83% 2817038 4.04 V
2026-05-06 21:43:59 PMT2 1.89% 5.8% 83% 2817038 4.04 V
2026-05-06 21:43:57 PMT2 1.89% 5.8% 83% 2817038 4.04 V
2026-05-06 21:43:57 PMT2 1.89% 5.8% 83% 2817038 4.04 V
2026-05-06 21:43:56 2369 0.44% 12.2% 7% 53171 3.24 V
2026-05-06 21:43:55 2369 0.44% 12.2% 7% 53171 3.24 V
2026-05-06 21:43:55 2369 0.44% 12.2% 7% 53171 3.24 V
2026-05-06 21:43:45 MJTM 1.76% 0.9% 101% 1686593 4.22 V
2026-05-06 21:43:44 MJTM 1.76% 0.9% 101% 1686593 4.22 V
2026-05-06 21:43:39 MJTM 1.76% 0.9% 101% 1686593 4.22 V
2026-05-06 21:43:38 MJTM 1.76% 0.9% 101% 1686593 4.22 V
2026-05-06 21:43:37 MJTM 1.76% 0.9% 101% 1686593 4.22 V
2026-05-06 21:43:36 MJTM 1.76% 0.9% 101% 1686593 4.22 V
2026-05-06 21:43:35 MJTM 1.76% 0.9% 101% 1686593 4.22 V
2026-05-06 21:43:29 MJTM 1.76% 0.9% 101% 1686593 4.22 V
2026-05-06 21:43:29 MJTM 1.76% 0.9% 101% 1686593 4.22 V
2026-05-06 21:43:23 PMT2 24.18°C
2026-05-06 21:43:23 PMT2 24.18°C
2026-05-06 21:43:05 7274 0.4% 0.0% 100% 7730689 4.11 V
2026-05-06 21:43:05 7274 0.4% 0.0% 100% 7730689 4.11 V
2026-05-06 21:43:05 7274 0.4% 0.0% 100% 7730689 4.11 V
2026-05-06 21:41:27 ah02 99.53% 16.11°C
2026-05-06 21:41:27 ah02 99.53% 16.11°C
2026-05-06 21:41:25 ah02 99.53% 16.11°C
2026-05-06 21:41:24 ah02 99.53% 16.11°C
2026-05-06 21:41:22 ah02 99.53% 16.11°C
2026-05-06 21:41:22 ah02 99.53% 16.11°C
2026-05-06 21:41:22 ah02 99.53% 16.11°C
2026-05-06 21:41:05 ah02 0.04% 13.2% 65% 61 3.85 V
2026-05-06 21:41:05 ah02 0.04% 13.2% 65% 61 3.85 V
2026-05-06 21:41:02 ah02 0.04% 13.2% 65% 61 3.85 V
2026-05-06 21:41:02 ah02 0.04% 13.2% 65% 61 3.85 V
2026-05-06 21:40:59 ah02 0.04% 13.2% 65% 61 3.85 V
2026-05-06 21:40:59 ah02 0.04% 13.2% 65% 61 3.85 V
2026-05-06 21:40:59 ah02 0.04% 13.2% 65% 61 3.85 V
2026-05-06 21:40:59 ah02 0.04% 13.2% 65% 61 3.85 V
2026-05-06 21:40:54 LMBs 23.78°C
2026-05-06 21:40:54 LMBs 23.78°C
2026-05-06 21:39:47 Wdst 1.23% 7.4% 72% 4314779 3.92 V
2026-05-06 21:39:47 Wdst 1.23% 7.4% 72% 4314779 3.92 V
2026-05-06 21:39:46 Wdst 1.23% 7.4% 72% 4314779 3.92 V
2026-05-06 21:39:35 DOS 2.13% 2.2% 101% 214827 4.24 V
2026-05-06 21:39:31 DOS 2.13% 2.2% 101% 214827 4.24 V
2026-05-06 21:39:30 DOS 2.13% 2.2% 101% 214827 4.24 V
2026-05-06 21:39:29 DOS 2.13% 2.2% 101% 214827 4.24 V
2026-05-06 21:39:27 DOS 2.13% 2.2% 101% 214827 4.24 V
2026-05-06 21:39:25 DOS 2.13% 2.2% 101% 214827 4.24 V
2026-05-06 21:39:25 DOS 2.13% 2.2% 101% 214827 4.24 V
2026-05-06 21:38:48 SMWS 0.84% 6.5% 35% 731020 3.58 V
2026-05-06 21:38:48 SMWS 0.84% 6.5% 35% 731020 3.58 V
2026-05-06 21:38:35 LMGB 0.06% 0.0% 101% 60588 -0.0 V
2026-05-06 21:38:35 LMGB 0.06% 0.0% 101% 60588 -0.0 V
2026-05-06 21:37:46 2-D 0.41% 3.5% 99% 12865387 4.18 V
2026-05-06 21:37:45 2-D 0.41% 3.5% 99% 12865387 4.18 V
2026-05-06 21:36:36 HT77 870.86 hPa 47.9% 12.17°C
2026-05-06 21:36:36 HT77 870.86 hPa 47.9% 12.17°C
2026-05-06 21:36:33 IIXF 850.82 hPa 38.64% 22.17°C 222.38 Ohm
2026-05-06 21:36:33 IIXF 850.82 hPa 38.64% 22.17°C 222.38 Ohm
2026-05-06 21:36:16 IIXF 0.53% 0.0% 101% 212841 4.28 V
2026-05-06 21:36:16 IIXF 0.53% 0.0% 101% 212841 4.28 V
2026-05-06 21:33:28 21a9 1020.47 hPa 47.49% 17.36°C
2026-05-06 21:33:27 21a9 1020.47 hPa 47.49% 17.36°C
2026-05-06 21:33:20 JR70 0.36% 81% 6097492 4.0 V
2026-05-06 21:33:20 JR70 0.36% 81% 6097492 4.0 V
2026-05-06 21:33:01 21a9 0.32% 1.7% 69% 723743 3.88 V
2026-05-06 21:33:01 21a9 0.32% 1.7% 69% 723743 3.88 V
2026-05-06 21:31:57 1808 1.98% 6.4% 101% 134754 -0.0 V
2026-05-06 21:31:57 1808 1.98% 6.4% 101% 134754 -0.0 V
2026-05-06 21:29:55 ah03 0.67% 11.8% 73% 1461489 3.92 V
2026-05-06 21:29:55 ah03 0.67% 11.8% 73% 1461489 3.92 V
2026-05-06 21:29:52 ah03 0.67% 11.8% 73% 1461489 3.92 V
2026-05-06 21:29:52 ah03 0.67% 11.8% 73% 1461489 3.92 V
2026-05-06 21:29:48 LRX1 1011.15 hPa 55.36% 21.43°C
2026-05-06 21:29:46 LRX1 1011.15 hPa 55.36% 21.43°C
2026-05-06 21:29:45 LRX1 1011.15 hPa 55.36% 21.43°C
2026-05-06 21:29:44 LRX1 1011.15 hPa 55.36% 21.43°C
2026-05-06 21:29:42 LRX1 1011.15 hPa 55.36% 21.43°C
2026-05-06 21:29:42 LRX1 1011.15 hPa 55.36% 21.43°C
2026-05-06 21:29:42 LRX1 1011.15 hPa 55.36% 21.43°C
2026-05-06 21:29:31 ah03 0.67% 11.8% 73% 1461489 3.92 V
2026-05-06 21:29:30 ah03 0.67% 11.8% 73% 1461489 3.92 V
2026-05-06 21:29:30 e536 0.3% 0.0% 92% 47506132 4.08 V
2026-05-06 21:29:30 ah03 0.67% 11.8% 73% 1461489 3.92 V
2026-05-06 21:29:30 ah03 0.67% 11.8% 73% 1461489 3.92 V
2026-05-06 21:27:46 MELK 0.02% 0.0% 96% 4368776 4.14 V
2026-05-06 21:27:46 MELK 0.02% 0.0% 96% 4368776 4.14 V
2026-05-06 21:27:45 MELK 0.02% 0.0% 96% 4368776 4.14 V
2026-05-06 21:27:44 MELK 0.02% 0.0% 96% 4368776 4.14 V
2026-05-06 21:27:44 MELK 0.02% 0.0% 96% 4368776 4.14 V
2026-05-06 21:27:43 MELK 0.02% 0.0% 96% 4368776 4.14 V
2026-05-06 21:27:42 MELK 0.02% 0.0% 96% 4368776 4.14 V
2026-05-06 21:27:42 MELK 0.02% 0.0% 96% 4368776 4.14 V
2026-05-06 21:27:42 MELK 0.02% 0.0% 96% 4368776 4.14 V
2026-05-06 21:27:37 RF01 0.78% 2.8% 101% 30844 4.22 V
2026-05-06 21:27:36 RF01 0.78% 2.8% 101% 30844 4.22 V
2026-05-06 21:27:36 RF01 0.78% 2.8% 101% 30844 4.22 V
2026-05-06 21:27:28 RF01 0.78% 2.8% 101% 30844 4.22 V
2026-05-06 21:27:28 RF01 0.78% 2.8% 101% 30844 4.22 V
2026-05-06 21:27:24 RF01 0.78% 2.8% 101% 30844 4.22 V
2026-05-06 21:27:24 RF01 0.78% 2.8% 101% 30844 4.22 V
2026-05-06 21:27:21 RF01 0.78% 2.8% 101% 30844 4.22 V
2026-05-06 21:27:20 RF01 0.78% 2.8% 101% 30844 4.22 V
2026-05-06 21:27:20 RF01 0.78% 2.8% 101% 30844 4.22 V
2026-05-06 21:25:58 2625 0.23% 1.1% 100% 856927 4.19 V
2026-05-06 21:25:57 2625 0.23% 1.1% 100% 856927 4.19 V
2026-05-06 21:25:03 Wdst 1.18% 3.2% 73% 4313879 3.93 V
2026-05-06 21:25:03 Wdst 1.18% 3.2% 73% 4313879 3.93 V
2026-05-06 21:25:03 Wdst 1.18% 3.2% 73% 4313879 3.93 V
2026-05-06 21:24:28 LAM2 1.87% 3.1% 101% 35641 4.58 V
2026-05-06 21:24:12 RF06 0.3% 9.4% 101% 213314 -0.0 V
2026-05-06 21:24:11 RF06 0.3% 9.4% 101% 213314 -0.0 V
2026-05-06 21:24:11 RF06 0.3% 9.4% 101% 213314 -0.0 V
2026-05-06 21:24:04 RF06 0.3% 9.4% 101% 213314 -0.0 V
2026-05-06 21:24:03 RF06 0.3% 9.4% 101% 213314 -0.0 V
2026-05-06 21:24:03 RF06 0.3% 9.4% 101% 213314 -0.0 V
2026-05-06 21:23:58 LAM2 1.87% 3.1% 101% 35641 4.58 V
2026-05-06 21:23:58 LAM2 1.87% 3.1% 101% 35641 4.58 V
2026-05-06 21:23:54 LAM2 1.87% 3.1% 101% 35641 4.58 V
2026-05-06 21:23:54 LAM2 1.87% 3.1% 101% 35641 4.58 V
2026-05-06 21:23:50 LAM2 1.87% 3.1% 101% 35641 4.58 V
2026-05-06 21:23:50 LAM2 1.87% 3.1% 101% 35641 4.58 V
2026-05-06 21:23:50 LAM2 1.87% 3.1% 101% 35641 4.58 V
2026-05-06 21:23:50 LAM2 1.87% 3.1% 101% 35641 4.58 V
2026-05-06 21:20:26 SMWS 0.77% 2.8% 36% 729901 3.59 V
2026-05-06 21:20:26 SMWS 0.77% 2.8% 36% 729901 3.59 V
2026-05-06 21:19:42 HAM2 2.28% 7.2% 91% 1134215 4.07 V
2026-05-06 21:19:42 HAM2 2.28% 7.2% 91% 1134215 4.07 V
2026-05-06 21:19:42 HAM2 2.28% 7.2% 91% 1134215 4.07 V
2026-05-06 21:19:41 HAM2 2.28% 7.2% 91% 1134215 4.07 V
2026-05-06 21:19:38 HAM2 2.28% 7.2% 91% 1134215 4.07 V
2026-05-06 21:19:38 HAM2 2.28% 7.2% 91% 1134215 4.07 V
2026-05-06 21:19:30 HAM2 2.28% 7.2% 91% 1134215 4.07 V
2026-05-06 21:19:30 HAM2 2.28% 7.2% 91% 1134215 4.07 V
2026-05-06 21:19:30 HAM2 2.28% 7.2% 91% 1134215 4.07 V
2026-05-06 21:18:35 HT77 870.72 hPa 48.16% 12.41°C
2026-05-06 21:18:34 HT77 870.72 hPa 48.16% 12.41°C
2026-05-06 21:18:33 IIXF 850.81 hPa 38.83% 22.22°C 219.72 Ohm
2026-05-06 21:18:33 IIXF 850.81 hPa 38.83% 22.22°C 219.72 Ohm
2026-05-06 21:18:16 IIXF 0.53% 0.0% 101% 211761 4.28 V
2026-05-06 21:18:16 IIXF 0.53% 0.0% 101% 211761 4.28 V
2026-05-06 21:18:10 JR70 0.27% 90% 6096589 4.06 V
2026-05-06 21:18:10 JR70 0.27% 90% 6096589 4.06 V
2026-05-06 21:15:50 PTRH 0.43% 0.0% 54% 892440 3.76 V
2026-05-06 21:15:50 PTRH 0.43% 0.0% 54% 892440 3.76 V
2026-05-06 21:15:26 PTRH 0.43% 0.0% 54% 892440 3.76 V
2026-05-06 21:15:25 PTRH 0.43% 0.0% 54% 892440 3.76 V
2026-05-06 21:15:24 RX01 0.02% 0.0% 101% 15205 0.0 V
2026-05-06 21:15:23 RX01 0.02% 0.0% 101% 15205 0.0 V
2026-05-06 21:14:54 HT77 0.31% 2.1% 101% 908379 4.28 V
2026-05-06 21:14:53 HT77 0.31% 2.1% 101% 908379 4.28 V
2026-05-06 21:14:05 DJMH 0.48% 0.0% 90% 6417424 4.05 V
2026-05-06 21:14:05 DJMH 0.48% 0.0% 90% 6417424 4.05 V
2026-05-06 21:13:37 LMBr 2.01% 2.0% 93% 3795814 4.1 V
2026-05-06 21:13:35 LMBr 2.01% 2.0% 93% 3795814 4.1 V
2026-05-06 21:13:35 LMBr 2.01% 2.0% 93% 3795814 4.1 V
2026-05-06 21:13:29 LMBr 2.01% 2.0% 93% 3795814 4.1 V
2026-05-06 21:13:29 LMBr 2.01% 2.0% 93% 3795814 4.1 V
2026-05-06 21:13:29 LMBr 2.01% 2.0% 93% 3795814 4.1 V
2026-05-06 21:13:29 LMBr 2.01% 2.0% 93% 3795814 4.1 V
2026-05-06 21:13:28 LMBr 2.01% 2.0% 93% 3795814 4.1 V
2026-05-06 21:13:28 PMT2 24.44°C
2026-05-06 21:13:27 PMT2 24.44°C
2026-05-06 21:13:27 PMT2 24.44°C
2026-05-06 21:13:23 PMT2 24.44°C
2026-05-06 21:13:22 PMT2 24.44°C
2026-05-06 21:11:48 RF02 1.36% 0.0% 101% 2700381 4.21 V
2026-05-06 21:11:48 RF02 1.36% 0.0% 101% 2700381 4.21 V
2026-05-06 21:11:42 RF02 1.36% 0.0% 101% 2700381 4.21 V
2026-05-06 21:11:42 RF02 1.36% 0.0% 101% 2700381 4.21 V
2026-05-06 21:11:39 RF02 1.36% 0.0% 101% 2700381 4.21 V
2026-05-06 21:11:38 RF02 1.36% 0.0% 101% 2700381 4.21 V
2026-05-06 21:11:34 RF02 1.36% 0.0% 101% 2700381 4.21 V
2026-05-06 21:11:34 RF02 1.36% 0.0% 101% 2700381 4.21 V
2026-05-06 21:11:34 RF02 1.36% 0.0% 101% 2700381 4.21 V
2026-05-06 21:10:19 PcL1 0.04% 2.6% 101% 61 4.23 V
2026-05-06 21:10:18 PcL1 0.04% 2.6% 101% 61 4.23 V
2026-05-06 21:10:10 Wdst 1.05% 18.0% 72% 4312978 3.92 V
2026-05-06 21:10:09 Wdst 1.05% 18.0% 72% 4312978 3.92 V
2026-05-06 21:10:09 Wdst 1.05% 18.0% 72% 4312978 3.92 V
2026-05-06 21:09:00 2369 0.43% 4.1% 7% 51071 3.25 V
2026-05-06 21:09:00 2369 0.43% 4.1% 7% 51071 3.25 V
2026-05-06 21:08:58 2369 0.43% 4.1% 7% 51071 3.25 V
2026-05-06 21:08:57 2369 0.43% 4.1% 7% 51071 3.25 V
2026-05-06 21:08:55 2369 0.43% 4.1% 7% 51071 3.25 V
2026-05-06 21:08:55 2369 0.43% 4.1% 7% 51071 3.25 V
2026-05-06 21:08:55 2369 0.43% 4.1% 7% 51071 3.25 V
2026-05-06 21:07:43 2-D 0.38% 101% 12863587 4.21 V
2026-05-06 21:07:43 2-D 0.38% 101% 12863587 4.21 V
2026-05-06 21:07:05 7274 0.43% 0.0% 100% 7728528 4.11 V
2026-05-06 21:07:05 7274 0.43% 0.0% 100% 7728528 4.11 V
2026-05-06 21:07:05 7274 0.43% 0.0% 100% 7728528 4.11 V
2026-05-06 21:05:33 LMBt 0.29% 4.9% 60% 143061 3.81 V
2026-05-06 21:05:33 LMBt 0.29% 4.9% 60% 143061 3.81 V
2026-05-06 21:05:32 LMBt 0.29% 4.9% 60% 143061 3.81 V
2026-05-06 21:05:26 LMBt 0.29% 4.9% 60% 143061 3.81 V
2026-05-06 21:05:26 LMBt 0.29% 4.9% 60% 143061 3.81 V
2026-05-06 21:05:23 LMBt 0.29% 4.9% 60% 143061 3.81 V
2026-05-06 21:05:23 LMBt 0.29% 4.9% 60% 143061 3.81 V
2026-05-06 21:05:21 LMBt 0.29% 4.9% 60% 143061 3.81 V
2026-05-06 21:05:21 LMBt 0.29% 4.9% 60% 143061 3.81 V
2026-05-06 21:03:11 JR70 0.29% 82% 6095686 4.01 V
2026-05-06 21:03:10 JR70 0.29% 82% 6095686 4.01 V
2026-05-06 21:02:33 LMGB 0.06% 0.0% 101% 58426 -0.0 V
2026-05-06 21:02:33 LMGB 0.06% 0.0% 101% 58426 -0.0 V
2026-05-06 21:02:25 LRX1 1.02% 0.0% 70% 82343 3.9 V
2026-05-06 21:02:24 LRX1 1.02% 0.0% 70% 82343 3.9 V
2026-05-06 21:02:24 LRX1 1.02% 0.0% 70% 82343 3.9 V
2026-05-06 21:01:45 SMWS 0.71% 5.8% 36% 728787 3.59 V
2026-05-06 21:01:45 SMWS 0.71% 5.8% 36% 728787 3.59 V
2026-05-06 21:01:45 SMWS 0.71% 5.8% 36% 728787 3.59 V
2026-05-06 21:00:43 HT77 870.61 hPa 47.97% 12.6°C
2026-05-06 21:00:43 HT77 870.61 hPa 47.97% 12.6°C
2026-05-06 21:00:37 HT77 870.61 hPa 47.97% 12.6°C
2026-05-06 21:00:36 HT77 870.61 hPa 47.97% 12.6°C
2026-05-06 21:00:33 IIXF 850.7 hPa 39.01% 22.26°C 217.98 Ohm
2026-05-06 21:00:33 IIXF 850.7 hPa 39.01% 22.26°C 217.98 Ohm
2026-05-06 21:00:16 IIXF 0.51% 0.0% 101% 210681 4.28 V
2026-05-06 21:00:16 IIXF 0.51% 0.0% 101% 210681 4.28 V
2026-05-06 20:59:27 1ae9 23.23°C
2026-05-06 20:59:26 1ae9 23.23°C
2026-05-06 20:59:20 1ae9 23.23°C
2026-05-06 20:59:19 1ae9 23.23°C
2026-05-06 20:59:19 1ae9 23.23°C
2026-05-06 20:57:46 MELK 0.03% 0.0% 96% 4366976 4.15 V
2026-05-06 20:57:45 MELK 0.03% 0.0% 96% 4366976 4.15 V
2026-05-06 20:57:44 MELK 0.03% 0.0% 96% 4366976 4.15 V
2026-05-06 20:57:42 MELK 0.03% 0.0% 96% 4366976 4.15 V
2026-05-06 20:57:42 MELK 0.03% 0.0% 96% 4366976 4.15 V
2026-05-06 20:57:42 MELK 0.03% 0.0% 96% 4366976 4.15 V
2026-05-06 20:57:19 976c 0.82% 3.0% 101% 4613730 4.22 V
2026-05-06 20:57:18 976c 0.82% 3.0% 101% 4613730 4.22 V
2026-05-06 20:56:55 HT77 0.36% 1.6% 101% 907299 4.28 V
2026-05-06 20:56:55 HT77 0.36% 1.6% 101% 907299 4.28 V
2026-05-06 20:55:57 2625 0.26% 0.9% 100% 855127 4.19 V
2026-05-06 20:55:57 2625 0.26% 0.9% 100% 855127 4.19 V
2026-05-06 20:55:49 BB04 2.83% 8.2% 101% 89824 -0.0 V
2026-05-06 20:55:48 BB04 2.83% 8.2% 101% 89824 -0.0 V
2026-05-06 20:55:48 BB04 2.83% 8.2% 101% 89824 -0.0 V
2026-05-06 20:55:32 BB04 2.83% 8.2% 101% 89824 -0.0 V
2026-05-06 20:55:31 BB04 2.83% 8.2% 101% 89824 -0.0 V
2026-05-06 20:55:31 BB04 2.83% 8.2% 101% 89824 -0.0 V
2026-05-06 20:55:03 RLSC 1000.81 hPa 74.47% 14.24°C
2026-05-06 20:55:03 RLSC 1000.81 hPa 74.47% 14.24°C
2026-05-06 20:54:46 Wdst 0.89% 1.0% 72% 4312078 3.92 V
2026-05-06 20:54:46 Wdst 0.89% 1.0% 72% 4312078 3.92 V
2026-05-06 20:54:46 Wdst 0.89% 1.0% 72% 4312078 3.92 V
2026-05-06 20:54:37 RF06 0.39% 11.0% 101% 211514 -0.0 V
2026-05-06 20:54:37 RF06 0.39% 11.0% 101% 211514 -0.0 V
2026-05-06 20:54:35 RF06 0.39% 11.0% 101% 211514 -0.0 V
2026-05-06 20:54:08 RF06 0.39% 11.0% 101% 211514 -0.0 V
2026-05-06 20:54:08 RF06 0.39% 11.0% 101% 211514 -0.0 V
2026-05-06 20:54:06 RF06 0.39% 11.0% 101% 211514 -0.0 V
2026-05-06 20:54:04 RF06 0.39% 11.0% 101% 211514 -0.0 V
2026-05-06 20:54:03 RF06 0.39% 11.0% 101% 211514 -0.0 V
2026-05-06 20:54:03 RF06 0.39% 11.0% 101% 211514 -0.0 V
2026-05-06 20:53:43 MRB1 1.72% 12.4% 101% 101773 4.24 V
2026-05-06 20:53:41 MRB1 1.72% 12.4% 101% 101773 4.24 V
2026-05-06 20:53:41 MRB1 1.72% 12.4% 101% 101773 4.24 V
2026-05-06 20:53:38 MRB1 1.72% 12.4% 101% 101773 4.24 V
2026-05-06 20:53:38 MRB1 1.72% 12.4% 101% 101773 4.24 V
2026-05-06 20:53:37 MRB1 1.72% 12.4% 101% 101773 4.24 V
2026-05-06 20:53:37 MRB1 1.72% 12.4% 101% 101773 4.24 V
2026-05-06 20:53:31 MRB1 1.72% 12.4% 101% 101773 4.24 V
2026-05-06 20:53:30 MRB1 1.72% 12.4% 101% 101773 4.24 V
2026-05-06 20:52:25 4ca4 0.59% 0.0% 96% 1079830 4.14 V
2026-05-06 20:50:05 MJTH 2.02% 1.9% 77% 1733795 3.97 V
2026-05-06 20:50:05 MJTH 2.02% 1.9% 77% 1733795 3.97 V
2026-05-06 20:49:34 HAM2 2.17% 4.2% 91% 1132415 4.07 V
2026-05-06 20:49:34 HAM2 2.17% 4.2% 91% 1132415 4.07 V
2026-05-06 20:49:34 HAM2 2.17% 4.2% 91% 1132415 4.07 V
2026-05-06 20:49:30 HAM2 2.17% 4.2% 91% 1132415 4.07 V
2026-05-06 20:49:29 HAM2 2.17% 4.2% 91% 1132415 4.07 V
2026-05-06 20:49:29 HAM2 2.17% 4.2% 91% 1132415 4.07 V
2026-05-06 20:48:50 ah03
2026-05-06 20:48:50 ah03
2026-05-06 20:48:50 ah03
2026-05-06 20:48:49 ah03
2026-05-06 20:48:49 ah03
2026-05-06 20:48:49 ah03
2026-05-06 20:48:48 PcL1 0.04% 2.6% 101% 61 4.22 V
2026-05-06 20:48:48 PcL1 0.04% 2.6% 101% 61 4.22 V
2026-05-06 20:48:06 JR70 0.31% 81% 6094783 4.0 V
2026-05-06 20:48:05 JR70 0.31% 81% 6094783 4.0 V
2026-05-06 20:44:12 PMT2 2.03% 6.3% 88% 2813438 4.07 V
2026-05-06 20:44:11 PMT2 2.03% 6.3% 88% 2813438 4.07 V
2026-05-06 20:44:06 DJMH 0.49% 4.5% 90% 6415624 4.05 V
2026-05-06 20:44:06 DJMH 0.49% 4.5% 90% 6415624 4.05 V
2026-05-06 20:44:03 PMT2 2.03% 6.3% 88% 2813438 4.07 V
2026-05-06 20:44:02 PMT2 2.03% 6.3% 88% 2813438 4.07 V
2026-05-06 20:43:33 PMT2 24.94°C
2026-05-06 20:43:26 PMT2 24.94°C
2026-05-06 20:43:26 PMT2 24.94°C
2026-05-06 20:43:24 PMT2 24.94°C
2026-05-06 20:43:22 PMT2 24.94°C
2026-05-06 20:43:22 PMT2 24.94°C
2026-05-06 20:43:14 SMWS 0.71% 0.0% 36% 727664 3.59 V
2026-05-06 20:43:14 SMWS 0.71% 0.0% 36% 727664 3.59 V
2026-05-06 20:43:14 SMWS 0.71% 0.0% 36% 727664 3.59 V
2026-05-06 20:42:35 HT77 870.51 hPa 48.44% 12.86°C
Visit MeshInfo-Lite on Github. Also visit the original MeshInfo by Kevin Elliott.